Search for airport 
image banner adimage banner adimage banner ad
image banner ad

6CA0 - Hotel New Otani Los Angeles

Located in Los Angeles, United States

ICAO - 6CA0, IATA -

Data provided by Airmate  

General information

Coordinates: N34°3'2" W118°14'33"
Elevation is 490 feet MSL.
Magnetic variation is 14° East
View others Airports in California

Operational data

Special qualification required
Current time UTC:
Current local time:
METAR: KHHR 260853Z AUTO 25004KT 10SM OVC012 18/15 A3002 RMK AO2 SLP163 T01830150 52002
View NOTAMs / SUP AIP / TFR affecting this airport [VIEW]
Communications frequencies: [VIEW]

Runways:

Airport contact information

Address: Los Angeles United States

Satellite view of 6CA0